createdAt,value
2019-03-31T00:00:39.705Z,18.17
2019-03-31T00:03:08.254Z,17.70
2019-03-31T00:05:37.428Z,16.93
2019-03-31T00:08:06.190Z,18.50
2019-03-31T00:10:34.833Z,20.10
2019-03-31T00:13:03.052Z,18.87
2019-03-31T00:15:31.671Z,16.63
2019-03-31T00:18:00.249Z,23.57
2019-03-31T00:20:28.801Z,17.13
2019-03-31T00:22:57.051Z,22.87
2019-03-31T00:25:25.264Z,17.63
2019-03-31T00:27:53.520Z,18.50
2019-03-31T00:30:22.065Z,23.20
2019-03-31T00:32:50.641Z,18.13
2019-03-31T00:35:19.188Z,18.23
2019-03-31T00:37:47.836Z,16.50
2019-03-31T00:40:16.448Z,19.77
2019-03-31T00:42:44.696Z,23.23
2019-03-31T00:45:13.388Z,23.70
2019-03-31T00:47:41.969Z,21.63
2019-03-31T00:50:10.589Z,17.67
2019-03-31T00:52:39.162Z,22.80
2019-03-31T00:55:07.850Z,19.37
2019-03-31T00:57:36.088Z,16.17
2019-03-31T01:00:06.512Z,19.00
2019-03-31T01:02:35.229Z,18.43
2019-03-31T01:05:06.117Z,18.87
2019-03-31T01:07:34.632Z,16.80
2019-03-31T01:10:05.084Z,23.03
2019-03-31T01:12:33.792Z,20.53
2019-03-31T01:15:04.326Z,17.93
2019-03-31T01:17:33.540Z,15.70
2019-03-31T01:20:02.293Z,14.67
2019-03-31T01:22:30.941Z,19.17
2019-03-31T01:24:59.552Z,15.00
2019-03-31T01:27:28.297Z,17.43
2019-03-31T01:29:56.849Z,20.63
2019-03-31T01:32:25.999Z,22.70
2019-03-31T01:34:54.417Z,19.50
2019-03-31T01:37:23.037Z,18.93
2019-03-31T01:39:51.963Z,23.67
2019-03-31T01:42:20.583Z,15.50
2019-03-31T01:44:49.288Z,20.70
2019-03-31T01:47:18.116Z,19.70
2019-03-31T01:49:46.758Z,18.23
2019-03-31T01:52:15.315Z,18.10
2019-03-31T01:54:43.894Z,20.80
2019-03-31T01:57:12.447Z,21.03
2019-03-31T01:59:40.697Z,14.13
2019-03-31T02:02:10.965Z,15.97
2019-03-31T02:04:39.545Z,17.93
2019-03-31T02:07:07.838Z,17.00
2019-03-31T02:09:36.089Z,16.93
2019-03-31T02:12:04.381Z,18.37
2019-03-31T02:14:32.954Z,18.93
2019-03-31T02:17:01.493Z,15.77
2019-03-31T02:19:30.133Z,15.10
2019-03-31T02:21:58.389Z,16.57
2019-03-31T02:24:26.942Z,18.90
2019-03-31T02:26:55.194Z,18.60
2019-03-31T02:29:23.734Z,19.80
2019-03-31T02:31:52.386Z,15.83
2019-03-31T02:34:21.002Z,16.67
2019-03-31T02:36:49.575Z,20.73
2019-03-31T02:39:18.139Z,21.83
2019-03-31T02:41:46.690Z,14.77
2019-03-31T02:44:14.917Z,19.47
2019-03-31T02:46:43.488Z,13.63
2019-03-31T02:49:12.034Z,15.83
2019-03-31T02:51:40.885Z,18.80
2019-03-31T02:54:09.552Z,14.77
2019-03-31T02:56:39.878Z,16.63
2019-03-31T02:59:08.694Z,15.43
2019-03-31T03:01:40.310Z,21.70
2019-03-31T03:04:09.306Z,18.43
2019-03-31T03:06:39.090Z,18.40
2019-03-31T03:09:07.778Z,16.93
2019-03-31T03:11:36.092Z,17.83
2019-03-31T03:14:06.675Z,15.10
2019-03-31T03:16:34.933Z,17.50
2019-03-31T03:19:03.545Z,16.03
2019-03-31T03:21:32.117Z,17.03
2019-03-31T03:24:00.675Z,15.90
2019-03-31T03:26:29.256Z,20.57
2019-03-31T03:28:57.474Z,17.17
2019-03-31T03:31:25.726Z,17.90
2019-03-31T03:33:54.297Z,17.63
2019-03-31T03:36:22.848Z,22.50
2019-03-31T03:38:51.490Z,16.80
2019-03-31T03:41:19.705Z,18.50
2019-03-31T03:43:55.635Z,17.87
2019-03-31T03:46:17.995Z,20.40
2019-03-31T03:48:46.375Z,15.37
2019-03-31T03:51:15.163Z,19.90
2019-03-31T03:53:43.778Z,19.47
2019-03-31T03:56:12.356Z,18.30
2019-03-31T03:58:40.974Z,15.37
2019-03-31T04:01:11.330Z,16.80
2019-03-31T04:03:39.880Z,21.87
2019-03-31T04:06:08.128Z,15.53
2019-03-31T04:08:36.354Z,18.67
2019-03-31T04:11:13.414Z,15.10
2019-03-31T04:13:42.036Z,19.93
2019-03-31T04:16:10.662Z,17.33
2019-03-31T04:18:39.220Z,16.40
2019-03-31T04:21:07.860Z,17.20
2019-03-31T04:23:36.109Z,18.63
2019-03-31T04:26:04.644Z,15.00
2019-03-31T04:28:33.223Z,16.43
2019-03-31T04:31:01.922Z,19.20
2019-03-31T04:33:48.434Z,16.27
2019-03-31T04:36:00.675Z,16.93
2019-03-31T04:38:29.254Z,15.70
2019-03-31T04:40:57.481Z,15.70
2019-03-31T04:43:25.712Z,16.97
2019-03-31T04:45:53.939Z,19.77
2019-03-31T04:48:22.190Z,14.70
2019-03-31T04:50:53.365Z,14.10
2019-03-31T04:53:21.932Z,15.63
2019-03-31T04:55:50.169Z,16.30
2019-03-31T04:58:18.385Z,18.90
2019-03-31T05:00:46.636Z,15.07
2019-03-31T05:03:15.188Z,19.50
2019-03-31T05:05:43.757Z,19.53
2019-03-31T05:08:11.972Z,17.63
2019-03-31T05:10:40.216Z,23.17
2019-03-31T05:13:08.442Z,15.37
2019-03-31T05:15:36.694Z,15.73
2019-03-31T05:18:04.937Z,14.13
2019-03-31T05:20:35.616Z,19.53
2019-03-31T05:23:03.926Z,16.13
2019-03-31T05:25:32.140Z,15.30
2019-03-31T05:28:00.393Z,16.33
2019-03-31T05:30:28.609Z,13.67
2019-03-31T05:32:56.852Z,16.33
2019-03-31T05:35:27.107Z,19.77
2019-03-31T05:37:55.306Z,16.77
2019-03-31T05:40:23.848Z,17.93
2019-03-31T05:42:52.090Z,15.83
2019-03-31T05:45:20.313Z,14.77
2019-03-31T05:47:48.561Z,20.67
2019-03-31T05:50:17.137Z,18.67
2019-03-31T05:52:45.359Z,15.83
2019-03-31T05:55:13.600Z,17.17
2019-03-31T05:57:42.150Z,18.90
2019-03-31T06:00:10.675Z,18.33
2019-03-31T06:02:38.898Z,17.27
2019-03-31T06:05:07.217Z,21.77
2019-03-31T06:07:35.444Z,21.30
2019-03-31T06:10:04.835Z,26.77
2019-03-31T06:12:33.401Z,26.07
2019-03-31T06:15:01.955Z,22.03
2019-03-31T06:17:30.533Z,20.93
2019-03-31T06:19:58.744Z,18.13
2019-03-31T06:22:27.001Z,19.50
2019-03-31T06:24:55.547Z,17.63
2019-03-31T06:27:24.121Z,20.60
2019-03-31T06:29:52.669Z,24.83
2019-03-31T06:32:21.399Z,20.47
2019-03-31T06:34:49.561Z,24.43
2019-03-31T06:37:18.119Z,21.20
2019-03-31T06:39:46.346Z,20.30
2019-03-31T06:42:14.923Z,29.60
2019-03-31T06:44:43.479Z,29.33
2019-03-31T06:47:12.030Z,22.33
2019-03-31T06:49:40.695Z,22.87
2019-03-31T06:52:09.249Z,19.87
2019-03-31T06:54:37.824Z,24.53
2019-03-31T06:57:06.382Z,22.70
2019-03-31T06:59:34.944Z,22.87
2019-03-31T07:02:03.667Z,28.90
2019-03-31T07:04:32.324Z,27.57
2019-03-31T07:07:00.878Z,30.23
2019-03-31T07:09:29.138Z,30.30
2019-03-31T07:11:57.353Z,26.37
2019-03-31T07:14:25.951Z,22.30
2019-03-31T07:16:54.511Z,25.70
2019-03-31T07:19:23.083Z,26.30
2019-03-31T07:21:51.632Z,23.33
2019-03-31T07:24:19.885Z,26.60
2019-03-31T07:26:48.433Z,27.30
2019-03-31T07:29:17.482Z,32.80
2019-03-31T07:31:46.041Z,22.10
2019-03-31T07:34:14.621Z,25.73
2019-03-31T07:36:43.164Z,23.33
2019-03-31T07:39:12.049Z,28.57
2019-03-31T07:41:40.454Z,29.43
2019-03-31T07:44:09.113Z,26.73
2019-03-31T07:46:37.333Z,24.33
2019-03-31T07:49:06.072Z,28.60
2019-03-31T07:51:37.451Z,24.27
2019-03-31T07:54:05.004Z,21.40
2019-03-31T07:56:33.817Z,26.53
2019-03-31T07:59:02.408Z,24.67
2019-03-31T08:01:30.946Z,25.20
2019-03-31T08:03:59.521Z,31.33
2019-03-31T08:06:29.614Z,29.27
2019-03-31T08:08:57.864Z,27.13
2019-03-31T08:11:26.090Z,26.23
2019-03-31T08:13:57.413Z,26.20
2019-03-31T08:16:25.965Z,29.73
2019-03-31T08:18:54.560Z,29.73
2019-03-31T08:21:23.106Z,28.73
2019-03-31T08:23:51.682Z,35.70
2019-03-31T08:26:20.234Z,33.47
2019-03-31T08:28:50.220Z,32.37
2019-03-31T08:31:21.710Z,34.07
2019-03-31T08:33:50.288Z,34.33
2019-03-31T08:36:18.843Z,32.77
2019-03-31T08:38:47.429Z,28.37
2019-03-31T08:41:15.986Z,29.80
2019-03-31T08:43:44.573Z,27.67
2019-03-31T08:46:13.117Z,32.33
2019-03-31T08:48:41.706Z,29.70
2019-03-31T08:51:10.253Z,33.00
2019-03-31T08:53:38.846Z,34.37
2019-03-31T08:56:08.891Z,33.27
2019-03-31T08:58:37.580Z,31.00
2019-03-31T09:01:09.877Z,35.40
2019-03-31T09:03:38.189Z,34.07
2019-03-31T09:06:06.926Z,31.50
2019-03-31T09:08:35.468Z,30.37
2019-03-31T09:11:04.130Z,36.60
2019-03-31T09:13:34.225Z,31.23
2019-03-31T09:16:06.927Z,33.87
2019-03-31T09:18:32.803Z,36.53
2019-03-31T09:21:01.484Z,40.63
2019-03-31T09:23:30.038Z,34.43
2019-03-31T09:25:58.711Z,33.10
2019-03-31T09:28:27.572Z,31.13
2019-03-31T09:30:56.183Z,42.07
2019-03-31T09:33:24.733Z,38.17
2019-03-31T09:35:53.308Z,43.67
2019-03-31T09:38:21.866Z,35.50
2019-03-31T09:40:50.527Z,41.77
2019-03-31T09:43:18.737Z,39.90
2019-03-31T09:45:47.322Z,41.17
2019-03-31T09:48:15.878Z,34.90
2019-03-31T09:50:44.458Z,35.30
2019-03-31T09:53:13.106Z,45.60
2019-03-31T09:55:41.677Z,42.27
2019-03-31T09:58:10.224Z,46.53
2019-03-31T10:00:47.327Z,40.67
2019-03-31T10:03:16.521Z,46.20
2019-03-31T10:05:48.025Z,41.57
2019-03-31T10:08:15.584Z,39.07
2019-03-31T10:10:44.352Z,50.10
2019-03-31T10:13:12.941Z,44.40
2019-03-31T10:15:41.602Z,47.90
2019-03-31T10:18:11.045Z,47.87
2019-03-31T10:20:39.693Z,34.60
2019-03-31T10:23:08.246Z,40.07
2019-03-31T10:25:36.821Z,37.27
2019-03-31T10:28:05.390Z,42.30
2019-03-31T10:30:48.985Z,38.63
2019-03-31T10:33:09.184Z,47.53
2019-03-31T10:35:37.941Z,38.80
2019-03-31T10:38:07.246Z,39.30
2019-03-31T10:40:35.908Z,37.37
2019-03-31T10:43:04.598Z,36.30
2019-03-31T10:45:33.186Z,27.53
2019-03-31T10:48:19.170Z,27.30
2019-03-31T10:50:35.328Z,25.47
2019-03-31T10:53:03.963Z,27.43
2019-03-31T10:55:32.600Z,30.77
2019-03-31T10:58:01.171Z,26.03
2019-03-31T11:00:37.697Z,36.17
2019-03-31T11:03:07.694Z,28.87
2019-03-31T11:05:36.922Z,24.13
2019-03-31T11:08:05.718Z,23.07
2019-03-31T11:10:34.845Z,22.03
2019-03-31T11:13:03.770Z,28.10
2019-03-31T11:15:32.094Z,29.53
2019-03-31T11:18:00.324Z,26.50
2019-03-31T11:20:28.909Z,21.80
2019-03-31T11:23:09.273Z,27.10
2019-03-31T11:25:37.854Z,23.20
2019-03-31T11:28:07.734Z,27.80
2019-03-31T11:30:36.706Z,23.97
2019-03-31T11:33:07.695Z,20.57
2019-03-31T11:35:42.277Z,27.03
2019-03-31T11:38:10.505Z,23.87
2019-03-31T11:40:39.098Z,27.13
2019-03-31T11:43:07.726Z,19.07
2019-03-31T11:45:36.339Z,22.40
2019-03-31T11:48:05.017Z,19.90
2019-03-31T11:50:33.656Z,20.97
2019-03-31T11:53:02.007Z,14.47
2019-03-31T11:55:30.959Z,15.43
2019-03-31T11:58:01.092Z,14.90
2019-03-31T12:00:32.617Z,22.93
2019-03-31T12:03:01.443Z,15.27
2019-03-31T12:08:18.896Z,17.13
2019-03-31T12:10:50.650Z,17.20
2019-03-31T12:13:19.235Z,18.43
2019-03-31T12:15:50.952Z,16.97
2019-03-31T12:18:19.635Z,14.77
2019-03-31T12:20:47.886Z,18.03
2019-03-31T12:23:16.442Z,18.67
2019-03-31T12:25:45.027Z,20.40
2019-03-31T12:28:17.560Z,16.90
2019-03-31T12:30:46.150Z,15.50
2019-03-31T12:33:14.769Z,13.57
2019-03-31T12:35:43.354Z,19.70
2019-03-31T12:38:11.588Z,14.93
2019-03-31T12:40:41.210Z,14.07
2019-03-31T12:43:09.798Z,16.03
2019-03-31T12:45:38.425Z,18.70
2019-03-31T12:48:07.145Z,16.73
2019-03-31T12:50:35.696Z,18.37
2019-03-31T12:53:04.618Z,16.67
2019-03-31T12:55:33.161Z,16.23
2019-03-31T12:58:01.736Z,14.93
2019-03-31T13:00:30.290Z,14.17
2019-03-31T13:02:58.868Z,13.70
2019-03-31T13:05:27.412Z,14.33
2019-03-31T13:07:56.928Z,14.93
2019-03-31T13:10:25.662Z,15.53
2019-03-31T13:12:54.253Z,16.77
2019-03-31T13:15:22.788Z,12.83
2019-03-31T13:17:51.546Z,15.97
2019-03-31T13:20:20.167Z,16.23
2019-03-31T13:22:48.814Z,14.50
2019-03-31T13:25:17.370Z,14.87
2019-03-31T13:27:45.948Z,14.07
2019-03-31T13:30:15.043Z,14.93
2019-03-31T13:32:43.900Z,32.27
2019-03-31T13:35:12.518Z,17.20
2019-03-31T13:37:41.098Z,14.73
2019-03-31T13:40:09.792Z,11.83
2019-03-31T13:42:38.373Z,13.00
2019-03-31T13:45:08.061Z,10.67
2019-03-31T13:47:36.651Z,19.77
2019-03-31T13:50:07.346Z,14.97
2019-03-31T13:52:37.542Z,12.43
2019-03-31T13:55:07.702Z,12.50
2019-03-31T13:57:44.173Z,14.43
2019-03-31T14:00:09.476Z,16.03
2019-03-31T14:02:40.658Z,15.13
2019-03-31T14:05:13.775Z,11.40
2019-03-31T14:07:43.560Z,12.43
2019-03-31T14:10:12.477Z,13.13
2019-03-31T14:12:43.938Z,12.57
2019-03-31T14:15:19.539Z,12.67
2019-03-31T14:17:44.342Z,14.20
2019-03-31T14:20:13.159Z,18.20
2019-03-31T14:22:41.739Z,12.10
2019-03-31T14:25:10.440Z,11.40
2019-03-31T14:27:41.763Z,11.50
2019-03-31T14:30:13.194Z,11.03
2019-03-31T14:32:43.418Z,11.37
2019-03-31T14:35:15.084Z,14.73
2019-03-31T14:37:43.337Z,11.73
2019-03-31T14:40:16.425Z,15.10
2019-03-31T14:42:45.084Z,12.73
2019-03-31T14:45:14.842Z,10.83
2019-03-31T14:47:45.629Z,12.33
2019-03-31T14:50:17.264Z,11.17
2019-03-31T14:52:48.751Z,12.00
2019-03-31T14:55:24.513Z,11.27
2019-03-31T14:57:52.782Z,13.03
2019-03-31T15:00:21.329Z,13.93
2019-03-31T15:02:49.914Z,9.30
2019-03-31T15:05:18.613Z,12.10
2019-03-31T15:07:47.194Z,16.03
2019-03-31T15:10:17.113Z,12.93
2019-03-31T15:12:46.670Z,12.10
2019-03-31T15:15:15.265Z,11.53
2019-03-31T15:17:43.540Z,13.50
2019-03-31T15:20:12.434Z,13.13
2019-03-31T15:22:42.510Z,12.60
2019-03-31T15:25:11.221Z,15.73
2019-03-31T15:27:39.805Z,14.70
2019-03-31T15:30:08.990Z,12.77
2019-03-31T15:32:37.561Z,18.73
2019-03-31T15:35:08.618Z,13.73
2019-03-31T15:37:37.138Z,17.30
2019-03-31T15:40:07.140Z,14.00
2019-03-31T15:42:35.787Z,14.93
2019-03-31T15:45:04.985Z,15.60
2019-03-31T15:47:33.562Z,19.07
2019-03-31T15:50:02.118Z,15.10
2019-03-31T15:52:30.693Z,13.90
2019-03-31T15:54:59.241Z,12.73
2019-03-31T15:57:30.278Z,12.47
2019-03-31T15:59:58.838Z,12.80
2019-03-31T16:02:29.134Z,13.23
2019-03-31T16:04:57.680Z,13.33
2019-03-31T16:07:26.270Z,12.07
2019-03-31T16:09:54.823Z,11.50
2019-03-31T16:12:23.409Z,13.53
2019-03-31T16:14:51.957Z,10.33
2019-03-31T16:17:20.537Z,13.33
2019-03-31T16:19:49.093Z,10.83
2019-03-31T16:22:17.668Z,13.90
2019-03-31T16:24:47.866Z,12.00
2019-03-31T16:27:16.450Z,13.13
2019-03-31T16:29:44.999Z,13.63
2019-03-31T16:32:13.652Z,11.73
2019-03-31T16:34:42.201Z,15.87
2019-03-31T16:37:10.818Z,13.90
2019-03-31T16:39:39.401Z,9.60
2019-03-31T16:42:07.954Z,11.50
2019-03-31T16:44:36.538Z,10.43
2019-03-31T16:47:04.829Z,15.53
2019-03-31T16:49:33.408Z,16.77
2019-03-31T16:52:01.960Z,15.37
2019-03-31T16:54:30.613Z,15.23
2019-03-31T16:56:59.165Z,12.93
2019-03-31T16:59:27.818Z,15.73
2019-03-31T17:01:56.366Z,10.43
2019-03-31T17:04:24.613Z,12.07
2019-03-31T17:06:53.166Z,12.43
2019-03-31T17:09:21.744Z,9.67
2019-03-31T17:11:50.292Z,12.67
2019-03-31T17:14:18.873Z,17.37
2019-03-31T17:16:47.435Z,16.73
2019-03-31T17:19:16.184Z,11.30
2019-03-31T17:21:44.744Z,11.30
2019-03-31T17:24:13.397Z,15.73
2019-03-31T17:26:41.950Z,14.63
2019-03-31T17:29:10.538Z,13.50
2019-03-31T17:31:39.160Z,13.43
2019-03-31T17:34:07.746Z,12.00
2019-03-31T17:36:36.294Z,15.43
2019-03-31T17:39:07.094Z,11.60
2019-03-31T17:41:35.701Z,10.80
2019-03-31T17:44:04.517Z,12.80
2019-03-31T17:46:33.069Z,12.40
2019-03-31T17:49:01.650Z,13.70
2019-03-31T17:51:30.202Z,14.30
2019-03-31T17:53:58.783Z,16.33
2019-03-31T17:56:27.328Z,14.27
2019-03-31T17:58:55.582Z,12.47
2019-03-31T18:01:24.197Z,13.83
2019-03-31T18:03:52.844Z,11.90
2019-03-31T18:06:21.401Z,11.73
2019-03-31T18:08:49.986Z,12.00
2019-03-31T18:11:18.615Z,15.17
2019-03-31T18:13:47.253Z,14.13
2019-03-31T18:16:15.469Z,17.27
2019-03-31T18:18:44.029Z,13.80
2019-03-31T18:21:12.600Z,12.33
2019-03-31T18:23:41.159Z,12.37
2019-03-31T18:26:09.804Z,18.70
2019-03-31T18:28:38.349Z,12.33
2019-03-31T18:31:06.927Z,14.60
2019-03-31T18:33:35.474Z,14.93
2019-03-31T18:36:04.432Z,11.60
2019-03-31T18:38:32.982Z,11.63
2019-03-31T18:41:03.654Z,12.70
2019-03-31T18:43:31.752Z,13.63
2019-03-31T18:46:00.342Z,13.53
2019-03-31T18:48:28.885Z,16.63
2019-03-31T18:50:57.469Z,15.17
2019-03-31T18:53:36.749Z,17.43
2019-03-31T18:56:23.169Z,11.87
2019-03-31T18:58:59.540Z,11.43
2019-03-31T19:01:46.221Z,9.43
2019-03-31T19:04:28.697Z,13.67
2019-03-31T19:07:17.070Z,12.80
2019-03-31T19:10:03.536Z,9.77
2019-03-31T19:12:33.738Z,11.70
2019-03-31T19:15:10.208Z,12.87
2019-03-31T19:17:52.510Z,10.37
2019-03-31T19:20:28.448Z,8.67
2019-03-31T19:23:06.798Z,10.97
2019-03-31T19:25:39.924Z,10.80
2019-03-31T19:28:09.787Z,10.67
2019-03-31T19:30:46.347Z,13.43
2019-03-31T19:33:25.587Z,9.10
2019-03-31T19:36:04.582Z,9.20
2019-03-31T19:38:37.299Z,15.17
2019-03-31T19:41:13.034Z,13.27
2019-03-31T19:43:59.870Z,15.60
2019-03-31T19:46:30.092Z,13.70
2019-03-31T19:49:16.807Z,18.63
2019-03-31T19:51:51.098Z,18.83
2019-03-31T19:54:33.468Z,18.93
2019-03-31T19:57:03.703Z,25.43
2019-03-31T19:59:49.247Z,18.03
2019-03-31T20:02:19.470Z,18.97
2019-03-31T20:05:01.563Z,21.87
2019-03-31T20:07:31.776Z,29.07
2019-03-31T20:10:18.494Z,25.80
2019-03-31T20:12:57.218Z,23.57
2019-03-31T20:15:42.535Z,22.63
2019-03-31T20:18:18.569Z,35.03
2019-03-31T20:20:57.393Z,35.57
2019-03-31T20:23:39.653Z,30.97
2019-03-31T20:26:18.978Z,31.67
2019-03-31T20:28:48.909Z,31.93
2019-03-31T20:31:21.760Z,27.33
2019-03-31T20:34:04.223Z,32.57
2019-03-31T20:36:37.448Z,35.73
2019-03-31T20:39:10.081Z,34.80
2019-03-31T20:41:46.386Z,31.57
2019-03-31T20:44:14.937Z,34.53
2019-03-31T20:46:45.197Z,34.20
2019-03-31T20:49:13.756Z,39.87
2019-03-31T20:51:42.333Z,35.50
2019-03-31T20:54:10.882Z,39.03
2019-03-31T20:56:39.462Z,38.90
2019-03-31T20:59:08.024Z,43.87
2019-03-31T21:01:36.634Z,36.23
2019-03-31T21:04:05.222Z,47.83
2019-03-31T21:06:33.769Z,41.20
2019-03-31T21:09:02.426Z,42.23
2019-03-31T21:11:30.982Z,40.53
2019-03-31T21:13:59.571Z,34.63
2019-03-31T21:16:28.189Z,44.93
2019-03-31T21:18:56.697Z,37.43
2019-03-31T21:21:25.258Z,41.27
2019-03-31T21:23:53.837Z,41.77
2019-03-31T21:26:22.394Z,44.63
2019-03-31T21:28:50.973Z,41.63
2019-03-31T21:31:19.207Z,38.60
2019-03-31T21:33:47.452Z,40.53
2019-03-31T21:36:16.009Z,39.43
2019-03-31T21:38:44.592Z,45.20
2019-03-31T21:41:14.284Z,38.63
2019-03-31T21:43:43.029Z,34.10
2019-03-31T21:46:11.591Z,41.30
2019-03-31T21:48:40.169Z,46.47
2019-03-31T21:51:08.729Z,45.70
2019-03-31T21:53:37.317Z,37.70
2019-03-31T21:56:05.863Z,44.30
2019-03-31T21:58:34.441Z,44.87
2019-03-31T22:01:03.057Z,51.57
2019-03-31T22:03:31.638Z,50.47
2019-03-31T22:06:00.194Z,43.07
2019-03-31T22:08:28.776Z,44.70
2019-03-31T22:10:57.325Z,45.80
2019-03-31T22:13:25.911Z,46.77
2019-03-31T22:15:54.458Z,42.57
2019-03-31T22:18:23.513Z,45.23
2019-03-31T22:20:52.053Z,51.03
2019-03-31T22:23:20.633Z,48.37
2019-03-31T22:25:49.188Z,50.10
2019-03-31T22:28:17.765Z,50.53
2019-03-31T22:30:46.309Z,42.83
2019-03-31T22:33:14.861Z,51.27
2019-03-31T22:35:45.081Z,53.37
2019-03-31T22:38:13.642Z,55.40
2019-03-31T22:40:42.223Z,64.17
2019-03-31T22:43:10.765Z,50.40
2019-03-31T22:45:39.341Z,45.77
2019-03-31T22:48:07.892Z,52.80
2019-03-31T22:50:36.471Z,51.70
2019-03-31T22:53:05.019Z,57.00
2019-03-31T22:55:33.601Z,60.17
2019-03-31T22:58:02.159Z,53.47
2019-03-31T23:00:30.798Z,53.30
2019-03-31T23:02:59.358Z,59.10
2019-03-31T23:05:27.929Z,60.43
2019-03-31T23:07:56.475Z,68.43
2019-03-31T23:10:25.053Z,63.07
2019-03-31T23:12:53.600Z,57.50
2019-03-31T23:15:22.249Z,59.17
2019-03-31T23:17:50.803Z,51.00
2019-03-31T23:20:19.114Z,55.00
2019-03-31T23:22:47.662Z,51.37
2019-03-31T23:25:16.243Z,56.13
2019-03-31T23:27:44.797Z,56.60
2019-03-31T23:30:13.851Z,59.40
2019-03-31T23:32:42.392Z,66.33
2019-03-31T23:35:11.046Z,59.17
2019-03-31T23:37:39.598Z,67.23
2019-03-31T23:40:07.920Z,65.30
2019-03-31T23:42:36.537Z,60.97
2019-03-31T23:45:06.325Z,62.63
2019-03-31T23:47:34.879Z,62.03
2019-03-31T23:50:03.595Z,55.37
2019-03-31T23:52:32.146Z,62.13
2019-03-31T23:55:00.713Z,64.53
2019-03-31T23:57:42.590Z,60.17
